Time;durP1;ratioP1;P1;durP2;ratioP2;P2;SDS_P1;SDS_P2;PMS_P1;PMS_P2;Temp;Humidity;BMP_temperature;BMP_pressure;BME280_temperature;BME280_humidity;BME280_pressure;Samples;Min_cycle;Max_cycle;Signal;HPM_P1;HPM_P2
2023/06/13 00:01:59;;;;;;;5.30;4.25;;;;;;;22.57;34.98;99899.63;10306136;28;20046;-51
2023/06/13 00:07:01;;;;;;;4.35;3.88;;;;;;;22.54;35.34;99901.94;10309522;28;20056;-51
2023/06/13 00:12:03;;;;;;;3.70;3.40;;;;;;;22.52;35.26;99904.88;10299474;28;20125;-51
2023/06/13 00:17:06;;;;;;;4.15;3.55;;;;;;;22.50;35.10;99901.50;10309956;28;20140;-52
2023/06/13 00:22:09;;;;;;;4.53;3.75;;;;;;;22.44;35.72;99901.53;10311291;28;20054;-52
2023/06/13 00:27:11;;;;;;;4.35;3.95;;;;;;;22.44;35.30;99894.22;10318454;28;20041;-51
2023/06/13 00:32:13;;;;;;;4.63;3.58;;;;;;;22.36;35.51;99892.56;10311668;28;20054;-51
2023/06/13 00:37:16;;;;;;;6.20;5.13;;;;;;;22.34;35.09;99891.09;10311150;28;20058;-51
2023/06/13 00:42:18;;;;;;;4.43;4.00;;;;;;;22.30;35.07;99897.97;10314932;28;20054;-51
2023/06/13 00:47:20;;;;;;;3.95;3.60;;;;;;;22.31;35.08;99902.34;10309824;28;20070;-52
2023/06/13 00:52:21;;;;;;;4.63;3.60;;;;;;;22.20;35.27;99901.94;10310739;28;20498;-53
2023/06/13 00:57:24;;;;;;;4.13;3.70;;;;;;;22.23;35.22;99901.53;10312013;28;20123;-51
2023/06/13 01:02:25;;;;;;;4.47;4.07;;;;;;;22.19;35.34;99897.56;10280715;28;20594;-52
2023/06/13 01:07:29;;;;;;;4.78;4.38;;;;;;;22.20;35.25;99901.94;10300179;28;20121;-52
2023/06/13 01:12:45;;;;;;;5.10;3.85;;;;;;;22.15;35.18;99892.75;10294561;28;20725;-51
2023/06/13 01:17:57;;;;;;;3.95;3.65;;;;;;;22.11;34.76;99896.91;10315270;28;20188;-51
2023/06/13 01:23:25;;;;;;;5.80;3.00;;;;;;;22.06;34.63;99897.56;10315122;28;20084;-51
2023/06/13 01:28:32;;;;;;;3.88;3.22;;;;;;;22.03;34.83;99890.66;10304821;28;20061;-51
2023/06/13 01:33:36;;;;;;;4.75;3.53;;;;;;;21.95;34.42;99888.16;10303180;28;20046;-51
2023/06/13 01:38:38;;;;;;;4.10;3.80;;;;;;;21.95;34.64;99892.72;10311633;28;20062;-51
2023/06/13 01:43:39;;;;;;;5.30;3.78;;;;;;;21.87;34.46;99897.34;10306887;28;20050;-50
2023/06/13 01:49:11;;;;;;;3.67;3.28;;;;;;;21.83;34.78;99896.06;10312817;28;20103;-50
2023/06/13 01:54:17;;;;;;;4.53;3.55;;;;;;;21.78;35.07;99892.31;10305336;28;20553;-52
2023/06/13 01:59:23;;;;;;;4.57;3.80;;;;;;;21.76;35.14;99895.22;10310749;28;20133;-50
2023/06/13 02:04:25;;;;;;;4.22;3.83;;;;;;;21.75;35.48;99898.94;10310610;28;20122;-50
2023/06/13 02:09:27;;;;;;;5.37;3.73;;;;;;;21.71;35.54;99889.59;10305776;28;20797;-51
2023/06/13 02:14:32;;;;;;;4.15;3.70;;;;;;;21.63;35.82;99884.34;10305146;28;20147;-51
2023/06/13 02:19:34;;;;;;;2.97;2.78;;;;;;;21.61;35.70;99886.44;10305050;28;20056;-50
2023/06/13 02:24:36;;;;;;;5.30;4.10;;;;;;;21.54;35.94;99881.84;10303590;28;20715;-50
2023/06/13 02:29:38;;;;;;;5.00;3.97;;;;;;;21.53;36.52;99891.00;10304496;28;20620;-50
2023/06/13 02:34:40;;;;;;;4.27;3.53;;;;;;;21.50;36.22;99888.69;10297839;28;20836;-50
2023/06/13 02:39:41;;;;;;;4.35;3.97;;;;;;;21.47;36.48;99899.91;10306724;28;20140;-52
2023/06/13 02:44:44;;;;;;;3.55;3.25;;;;;;;21.40;36.46;99884.69;10304548;28;20088;-55
2023/06/13 02:49:45;;;;;;;5.03;4.10;;;;;;;21.32;36.36;99891.13;10284968;28;20256;-51
2023/06/13 02:54:47;;;;;;;3.22;2.97;;;;;;;21.24;36.91;99889.41;10289672;28;20058;-51
2023/06/13 02:59:48;;;;;;;5.22;4.00;;;;;;;21.23;36.83;99886.91;10306349;28;20139;-51
2023/06/13 03:04:50;;;;;;;4.80;3.72;;;;;;;21.15;37.06;99888.78;10287596;28;20516;-50
2023/06/13 03:09:52;;;;;;;4.10;3.80;;;;;;;21.13;36.88;99888.13;10309348;28;20046;-51
2023/06/13 03:14:53;;;;;;;4.38;3.80;;;;;;;21.07;37.29;99885.41;10308471;28;20482;-51
2023/06/13 03:19:55;;;;;;;4.70;3.03;;;;;;;21.06;37.52;99894.53;10294108;28;20185;-51
2023/06/13 03:25:05;;;;;;;3.35;3.05;;;;;;;20.99;37.48;99894.53;10305734;28;20057;-50
2023/06/13 03:30:07;;;;;;;5.38;3.88;;;;;;;20.95;37.75;99895.94;10297238;28;20054;-51
2023/06/13 03:35:09;;;;;;;4.55;3.65;;;;;;;20.94;37.21;99896.97;10307914;28;20057;-50
2023/06/13 03:40:11;;;;;;;4.47;3.22;;;;;;;20.88;37.68;99893.19;10294993;28;20058;-50
2023/06/13 03:45:15;;;;;;;4.35;3.38;;;;;;;20.87;37.88;99896.09;10307098;28;20046;-51
2023/06/13 03:50:17;;;;;;;3.97;3.38;;;;;;;20.84;37.89;99881.13;10321174;28;20053;-51
2023/06/13 03:55:18;;;;;;;4.85;3.63;;;;;;;20.78;38.08;99888.16;10306528;28;20058;-50
2023/06/13 04:00:21;;;;;;;5.03;3.33;;;;;;;20.71;38.45;99884.56;10280280;28;20983;-51
2023/06/13 04:05:22;;;;;;;3.85;3.33;;;;;;;20.78;38.39;99874.63;10326033;28;20167;-49
2023/06/13 04:10:24;;;;;;;4.63;3.25;;;;;;;20.83;38.32;99885.69;10314905;28;20690;-50
2023/06/13 04:15:26;;;;;;;5.75;3.42;;;;;;;20.76;38.65;99874.00;10316551;28;20052;-50
2023/06/13 04:20:28;;;;;;;3.88;3.47;;;;;;;20.75;38.88;99877.75;10321924;28;20226;-49
2023/06/13 04:25:30;;;;;;;3.45;3.15;;;;;;;20.78;39.07;99890.84;10317044;28;20290;-49
2023/06/13 04:30:31;;;;;;;3.95;3.50;;;;;;;20.73;39.05;99892.47;10323120;28;20046;-50
2023/06/13 04:35:37;;;;;;;4.90;3.10;;;;;;;20.73;39.23;99901.47;10302670;28;20797;-50
2023/06/13 04:40:39;;;;;;;4.28;3.90;;;;;;;20.78;39.52;99908.97;10319441;28;20470;-52
2023/06/13 04:45:43;;;;;;;5.53;4.15;;;;;;;20.79;39.81;99925.00;10322991;28;20793;-51
2023/06/13 04:50:45;;;;;;;4.72;3.38;;;;;;;20.74;39.73;99930.16;10321383;28;20181;-51
2023/06/13 04:55:47;;;;;;;4.95;3.40;;;;;;;20.77;39.57;99927.03;10314994;28;20057;-51
2023/06/13 05:00:50;;;;;;;4.43;3.37;;;;;;;20.80;39.90;99936.66;10296560;28;20066;-50
2023/06/13 05:05:52;;;;;;;3.70;3.33;;;;;;;20.80;39.93;99929.34;10291808;28;20053;-60
2023/06/13 05:10:53;;;;;;;4.63;3.30;;;;;;;20.84;39.90;99938.75;10307699;28;20204;-60
2023/06/13 05:15:55;;;;;;;4.43;3.75;;;;;;;20.84;40.15;99946.88;10303210;28;20593;-60
2023/06/13 05:21:00;;;;;;;4.55;3.60;;;;;;;20.89;40.39;99948.16;10273275;28;20139;-60
2023/06/13 05:26:03;;;;;;;4.55;3.65;;;;;;;20.90;40.19;99939.84;10271298;28;20129;-60
2023/06/13 05:31:04;;;;;;;3.70;3.40;;;;;;;20.98;40.29;99942.38;10287669;28;20614;-60
2023/06/13 05:36:06;;;;;;;8.00;3.45;;;;;;;21.04;39.48;99946.16;10281351;28;20100;-60
2023/06/13 05:41:08;;;;;;;4.90;3.13;;;;;;;21.11;39.90;99957.03;10267642;28;20061;-60
2023/06/13 05:46:09;;;;;;;5.13;3.35;;;;;;;21.14;40.09;99954.75;10300330;28;20597;-60
2023/06/13 05:51:11;;;;;;;5.13;3.20;;;;;;;21.18;39.50;99955.16;10259283;28;20058;-60
2023/06/13 05:56:12;;;;;;;3.10;2.80;;;;;;;21.20;40.18;99955.81;10282329;28;20314;-59
2023/06/13 06:01:14;;;;;;;4.55;3.00;;;;;;;21.36;40.28;99960.03;10298323;28;20061;-59
2023/06/13 06:06:16;;;;;;;4.03;3.30;;;;;;;21.49;40.42;99965.50;10277765;28;20173;-59
2023/06/13 06:11:17;;;;;;;3.88;3.20;;;;;;;21.35;39.59;99958.38;10291851;28;20110;-59
2023/06/13 06:16:20;;;;;;;4.72;2.75;;;;;;;21.53;39.36;99966.00;10280399;28;20183;-59
2023/06/13 06:21:22;;;;;;;4.45;3.22;;;;;;;21.65;39.11;99966.25;10298747;28;20627;-59
2023/06/13 06:26:24;;;;;;;6.07;3.10;;;;;;;21.59;39.11;99945.38;10277469;28;20164;-59
2023/06/13 06:31:27;;;;;;;5.60;3.00;;;;;;;21.83;38.88;99971.91;10284611;28;20165;-59
2023/06/13 06:36:29;;;;;;;5.20;3.17;;;;;;;21.95;39.22;99974.00;10279718;28;20078;-60
2023/06/13 06:41:30;;;;;;;4.18;2.80;;;;;;;22.04;39.15;99967.38;10293285;28;20050;-59
2023/06/13 06:46:32;;;;;;;4.10;2.45;;;;;;;22.17;38.83;99967.41;10295357;28;20591;-59
2023/06/13 06:51:35;;;;;;;3.70;3.30;;;;;;;22.32;38.71;99963.69;10276211;28;20053;-60
2023/06/13 06:56:36;;;;;;;7.00;3.15;;;;;;;22.44;38.83;99961.19;10278296;28;20054;-59
2023/06/13 07:01:37;;;;;;;4.53;2.45;;;;;;;22.56;38.48;99960.38;10286024;28;20050;-60
2023/06/13 07:06:39;;;;;;;5.75;2.90;;;;;;;22.47;38.44;99961.59;10278809;28;20057;-60
2023/06/13 07:11:41;;;;;;;5.90;3.03;;;;;;;22.63;38.45;99964.94;10270864;28;20046;-59
2023/06/13 07:16:42;;;;;;;5.13;2.88;;;;;;;22.86;38.39;99959.06;10278402;28;20422;-59
2023/06/13 07:21:44;;;;;;;3.55;2.63;;;;;;;23.04;37.78;99956.50;10291660;28;21165;-61
2023/06/13 07:26:46;;;;;;;3.08;2.45;;;;;;;23.15;37.65;99960.50;10291017;28;20787;-58
2023/06/13 07:31:48;;;;;;;3.35;3.05;;;;;;;23.30;37.54;99958.38;10295602;28;20703;-59
2023/06/13 07:36:49;;;;;;;4.55;2.50;;;;;;;23.51;37.61;99960.97;10278672;28;20402;-59
2023/06/13 07:41:51;;;;;;;3.00;2.72;;;;;;;23.55;34.23;99946.75;10260653;28;20168;-60
2023/06/13 07:46:52;;;;;;;3.10;2.72;;;;;;;23.61;33.89;99956.75;10256716;28;20058;-60
2023/06/13 07:51:54;;;;;;;4.65;2.50;;;;;;;23.67;32.99;99948.81;10267075;28;20074;-60
2023/06/13 07:56:57;;;;;;;3.42;2.63;;;;;;;23.81;32.26;99951.22;10290827;28;20071;-61
2023/06/13 08:02:02;;;;;;;4.68;2.83;;;;;;;23.78;31.04;99942.66;10261752;28;20076;-60
2023/06/13 08:07:04;;;;;;;3.70;2.13;;;;;;;23.89;31.58;99943.91;10263754;28;20053;-60
2023/06/13 08:12:06;;;;;;;3.42;2.60;;;;;;;24.03;31.62;99921.00;10291533;28;20053;-60
2023/06/13 08:17:08;;;;;;;5.30;2.75;;;;;;;24.18;31.80;99917.97;10276033;28;20437;-61
2023/06/13 08:22:10;;;;;;;3.45;2.78;;;;;;;24.49;31.50;99905.38;10264356;28;20569;-60
2023/06/13 08:27:16;;;;;;;5.40;2.75;;;;;;;24.59;30.06;99913.88;10285857;28;20262;-60
2023/06/13 08:32:19;;;;;;;5.68;2.72;;;;;;;24.64;29.16;99913.22;10299000;28;20525;-60
2023/06/13 08:37:21;;;;;;;2.85;2.58;;;;;;;24.81;28.99;99910.72;10285903;28;20081;-60
2023/06/13 08:42:25;;;;;;;3.72;2.90;;;;;;;24.95;29.66;99904.09;10295201;28;20160;-60
2023/06/13 08:47:26;;;;;;;4.20;2.60;;;;;;;25.07;28.57;99912.31;10284080;28;20470;-59
2023/06/13 08:52:39;;;;;;;2.60;2.22;;;;;;;25.04;29.65;99905.44;10282265;28;20172;-61
2023/06/13 08:57:45;;;;;;;3.65;2.47;;;;;;;25.24;28.64;99898.94;10271270;28;20100;-60
2023/06/13 09:02:48;;;;;;;6.82;2.30;;;;;;;25.33;28.77;99908.47;10282549;28;20509;-60
2023/06/13 09:07:50;;;;;;;3.92;2.70;;;;;;;25.49;28.28;99906.16;10290318;28;20371;-60
2023/06/13 09:12:52;;;;;;;3.65;2.90;;;;;;;25.69;27.36;99901.28;10302235;28;20066;-60
2023/06/13 09:17:55;;;;;;;4.60;2.15;;;;;;;25.81;27.95;99892.31;10286048;28;20163;-60
2023/06/13 09:23:04;;;;;;;2.95;2.38;;;;;;;26.05;27.88;99894.06;10280650;28;20058;-60
2023/06/13 09:28:32;;;;;;;2.28;2.08;;;;;;;26.25;27.63;99881.97;10273016;28;20493;-60
2023/06/13 09:33:37;;;;;;;3.22;2.60;;;;;;;26.30;26.18;99871.19;10297971;28;20060;-60
2023/06/13 09:38:41;;;;;;;5.78;2.45;;;;;;;26.25;25.98;99876.53;10285784;28;20057;-61
2023/06/13 09:43:43;;;;;;;2.78;2.50;;;;;;;26.30;26.68;99873.91;10292366;28;20061;-60
2023/06/13 09:48:45;;;;;;;4.13;2.60;;;;;;;26.29;25.79;99883.19;10260878;28;20606;-61
2023/06/13 09:53:47;;;;;;;3.38;2.92;;;;;;;26.37;25.56;99868.34;10250448;28;20728;-60
2023/06/13 09:58:51;;;;;;;3.70;2.67;;;;;;;26.57;25.77;99867.97;10273786;28;20057;-60
2023/06/13 10:03:52;;;;;;;3.20;2.22;;;;;;;26.91;25.50;99851.81;10259666;28;20050;-60
2023/06/13 10:08:55;;;;;;;2.47;2.28;;;;;;;27.18;24.55;99854.81;10280461;28;20564;-60
2023/06/13 10:14:10;;;;;;;2.78;2.30;;;;;;;27.46;24.89;99854.03;10282087;28;20054;-62
2023/06/13 10:19:19;;;;;;;4.32;3.35;;;;;;;27.63;22.92;99842.31;10276627;28;20533;-60
2023/06/13 10:24:22;;;;;;;3.88;2.30;;;;;;;27.70;24.19;99842.97;10257505;28;20110;-61
2023/06/13 10:29:37;;;;;;;3.10;2.80;;;;;;;27.75;24.11;99843.06;10290887;28;20054;-61
2023/06/13 10:35:01;;;;;;;3.92;2.13;;;;;;;27.82;23.81;99834.72;10296389;28;20046;-62
2023/06/13 10:40:20;;;;;;;3.92;2.75;;;;;;;27.90;23.98;99833.47;10300944;28;20454;-60
2023/06/13 10:45:24;;;;;;;4.60;2.35;;;;;;;28.01;23.00;99843.50;10270549;28;20060;-60
2023/06/13 10:50:26;;;;;;;4.90;2.47;;;;;;;28.16;23.69;99819.13;10294810;28;20062;-60
2023/06/13 10:55:29;;;;;;;2.25;2.05;;;;;;;28.35;23.70;99816.13;10286223;28;20831;-60
2023/06/13 11:00:34;;;;;;;2.97;2.30;;;;;;;28.41;22.92;99812.38;10296401;28;20676;-59
2023/06/13 11:05:46;;;;;;;2.58;2.20;;;;;;;28.47;23.17;99805.06;10297099;28;20157;-62
2023/06/13 11:10:52;;;;;;;3.65;2.70;;;;;;;28.66;22.47;99805.59;10281803;28;20057;-61
2023/06/13 11:15:57;;;;;;;5.75;2.67;;;;;;;28.67;22.89;99802.59;10253590;28;21042;-62
2023/06/13 11:20:59;;;;;;;4.93;2.38;;;;;;;28.82;22.58;99799.22;10272021;28;20140;-62
2023/06/13 11:26:01;;;;;;;3.63;2.50;;;;;;;28.85;22.18;99795.16;10280635;28;20700;-61
2023/06/13 11:31:05;;;;;;;3.90;2.77;;;;;;;28.97;22.11;99795.84;10297613;28;20580;-63
2023/06/13 11:36:07;;;;;;;3.33;2.45;;;;;;;28.99;22.36;99787.38;10285263;28;20050;-61
2023/06/13 11:41:09;;;;;;;3.30;2.65;;;;;;;28.92;21.90;99777.44;10294584;28;20406;-61
2023/06/13 11:46:13;;;;;;;3.83;2.22;;;;;;;28.85;21.62;99782.28;10298472;28;20068;-64
2023/06/13 11:51:15;;;;;;;4.68;2.58;;;;;;;28.87;21.63;99774.66;10298626;28;21033;-62
2023/06/13 11:56:19;;;;;;;5.43;2.20;;;;;;;28.89;22.09;99755.22;10285527;28;20450;-61
2023/06/13 12:01:24;;;;;;;2.42;1.92;;;;;;;28.96;22.76;99775.03;10272015;28;20139;-60
2023/06/13 12:06:38;;;;;;;7.35;2.47;;;;;;;28.93;21.87;99770.06;10306358;28;20046;-64
2023/06/13 12:11:40;;;;;;;3.03;2.50;;;;;;;28.96;22.29;99771.44;10270920;28;20723;-63
2023/06/13 12:16:42;;;;;;;2.78;2.45;;;;;;;28.84;22.43;99761.47;10294089;28;20053;-62
2023/06/13 12:21:45;;;;;;;4.25;2.40;;;;;;;28.60;22.11;99752.72;10286870;28;20050;-62
2023/06/13 12:26:47;;;;;;;3.30;2.28;;;;;;;28.71;22.72;99742.72;10308393;28;20060;-62
2023/06/13 12:31:58;;;;;;;3.45;2.10;;;;;;;28.90;22.51;99746.75;10301684;28;20046;-62
2023/06/13 12:37:04;;;;;;;5.72;2.55;;;;;;;28.92;22.27;99738.28;10274755;28;20056;-62
2023/06/13 12:42:08;;;;;;;2.60;2.40;;;;;;;28.83;22.53;99737.09;10305912;28;20045;-62
2023/06/13 12:47:10;;;;;;;5.78;2.40;;;;;;;28.83;21.76;99737.91;10291003;28;20042;-62
2023/06/13 12:52:15;;;;;;;5.70;3.20;;;;;;;28.70;21.96;99730.09;10299870;28;20144;-61
2023/06/13 12:57:17;;;;;;;4.38;2.40;;;;;;;28.79;22.71;99717.59;10297413;28;20792;-61
2023/06/13 13:02:23;;;;;;;3.63;2.88;;;;;;;28.86;21.92;99717.41;10302525;28;20161;-62
2023/06/13 13:07:28;;;;;;;3.95;2.35;;;;;;;28.91;22.02;99714.72;10301364;28;20050;-61
2023/06/13 13:12:29;;;;;;;3.80;2.25;;;;;;;28.86;21.98;99701.78;10297832;28;20061;-61
2023/06/13 13:17:31;;;;;;;3.10;2.40;;;;;;;28.89;22.09;99700.44;10299653;28;20084;-60
2023/06/13 13:22:33;;;;;;;5.93;2.90;;;;;;;28.88;22.01;99685.09;10283783;28;20057;-62
2023/06/13 13:27:34;;;;;;;6.87;2.73;;;;;;;28.84;22.43;99693.00;10275987;28;20319;-61
2023/06/13 13:32:36;;;;;;;3.40;2.33;;;;;;;28.82;22.35;99678.72;10280591;28;20057;-65
2023/06/13 13:37:38;;;;;;;2.97;2.70;;;;;;;28.70;22.04;99670.66;10279062;28;20054;-61
2023/06/13 13:42:40;;;;;;;4.18;2.40;;;;;;;28.67;22.43;99678.59;10294675;28;20061;-61
2023/06/13 13:47:41;;;;;;;2.77;2.57;;;;;;;28.57;21.53;99680.09;10297257;28;20049;-62
2023/06/13 13:52:43;;;;;;;3.17;2.80;;;;;;;28.57;21.36;99666.41;10266334;28;20129;-61
2023/06/13 13:57:45;;;;;;;5.17;2.97;;;;;;;28.37;22.08;99667.00;10282077;28;20065;-61
2023/06/13 14:02:47;;;;;;;5.35;2.42;;;;;;;28.28;22.48;99670.44;10293889;28;20052;-60
2023/06/13 14:07:49;;;;;;;4.18;2.80;;;;;;;28.22;21.79;99664.06;10281667;28;20065;-61
2023/06/13 14:12:51;;;;;;;3.03;2.40;;;;;;;28.17;21.49;99662.09;10256917;28;20569;-61
2023/06/13 14:17:55;;;;;;;3.70;2.78;;;;;;;28.17;21.89;99648.41;10296367;28;20050;-62
2023/06/13 14:22:57;;;;;;;5.95;2.70;;;;;;;28.08;22.31;99646.41;10293718;28;20585;-62
2023/06/13 14:27:59;;;;;;;4.88;2.90;;;;;;;28.07;22.05;99639.28;10298759;28;20074;-61
2023/06/13 14:33:01;;;;;;;3.40;2.70;;;;;;;27.99;22.26;99632.34;10282803;28;20065;-62
2023/06/13 14:38:03;;;;;;;;;;;;;;;27.97;22.74;99626.28;10286688;28;20856;-61
2023/06/13 14:43:06;;;;;;;3.78;2.25;;;;;;;27.89;23.23;99627.50;10286751;28;19930;-61
2023/06/13 14:48:07;;;;;;;;;;;;;;;27.91;23.02;99632.72;10299635;28;20049;-62
2023/06/13 14:53:09;;;;;;;4.68;3.88;;;;;;;27.84;22.83;99627.47;10285939;28;19921;-62
2023/06/13 14:58:11;;;;;;;5.88;3.50;;;;;;;27.80;23.34;99621.69;10281922;28;20613;-61
2023/06/13 15:03:15;;;;;;;5.65;2.55;;;;;;;27.78;23.25;99621.09;10283275;28;20752;-62
2023/06/13 15:08:17;;;;;;;3.07;2.87;;;;;;;27.75;23.58;99618.84;10266746;28;20591;-61
2023/06/13 15:13:20;;;;;;;5.05;2.63;;;;;;;27.60;23.58;99614.00;10281914;28;20053;-61
2023/06/13 15:18:22;;;;;;;7.30;6.05;;;;;;;27.61;24.37;99603.88;10277013;28;20163;-61
2023/06/13 15:23:25;;;;;;;3.53;2.92;;;;;;;27.67;23.85;99602.91;10285889;28;20053;-62
2023/06/13 15:28:27;;;;;;;2.60;2.40;;;;;;;27.61;23.07;99606.63;10294940;28;20047;-61
2023/06/13 15:33:32;;;;;;;2.60;2.40;;;;;;;27.63;23.85;99597.09;10285361;28;20069;-60
2023/06/13 15:38:34;;;;;;;2.70;2.50;;;;;;;27.62;23.92;99589.16;10290245;28;20050;-61
2023/06/13 15:43:36;;;;;;;3.53;2.90;;;;;;;27.61;23.87;99587.50;10300239;28;20050;-61
2023/06/13 15:48:38;;;;;;;5.32;3.03;;;;;;;27.58;23.28;99599.78;10289470;28;20060;-60
2023/06/13 15:53:39;;;;;;;4.97;3.20;;;;;;;27.50;23.62;99586.53;10273292;28;20767;-61
2023/06/13 15:58:41;;;;;;;3.25;2.60;;;;;;;27.49;23.51;99591.19;10293704;28;20045;-61
2023/06/13 16:03:43;;;;;;;4.13;2.60;;;;;;;27.46;23.59;99588.13;10297780;28;20053;-60
2023/06/13 16:08:46;;;;;;;4.28;2.80;;;;;;;27.42;23.67;99574.13;10279016;28;21211;-60
2023/06/13 16:13:50;;;;;;;4.47;2.38;;;;;;;27.38;24.02;99581.16;10297175;28;20065;-61
2023/06/13 16:18:54;;;;;;;2.90;2.70;;;;;;;27.41;24.15;99569.72;10271786;28;20054;-61
2023/06/13 16:23:56;;;;;;;2.67;2.13;;;;;;;27.37;23.94;99575.94;10297324;28;20042;-61
2023/06/13 16:28:59;;;;;;;3.60;2.30;;;;;;;27.38;23.65;99577.59;10277238;28;20054;-62
2023/06/13 16:34:01;;;;;;;3.15;2.60;;;;;;;27.37;23.63;99576.78;10285268;28;20053;-61
2023/06/13 16:39:05;;;;;;;4.35;2.95;;;;;;;27.40;23.68;99570.81;10285937;28;20073;-61
2023/06/13 16:44:08;;;;;;;3.53;2.35;;;;;;;27.39;23.13;99580.09;10291691;28;20154;-61
2023/06/13 16:49:10;;;;;;;4.55;2.58;;;;;;;27.38;23.43;99580.34;10280698;28;20095;-62
2023/06/13 16:54:11;;;;;;;5.07;2.80;;;;;;;27.34;23.17;99578.13;10298068;28;20143;-61
2023/06/13 16:59:12;;;;;;;4.18;2.60;;;;;;;27.31;23.35;99569.56;10270879;28;20046;-62
2023/06/13 17:04:15;;;;;;;2.83;2.28;;;;;;;27.28;23.56;99576.34;10279828;28;20650;-61
2023/06/13 17:09:18;;;;;;;3.13;2.50;;;;;;;27.21;22.94;99567.50;10282082;28;20049;-62
2023/06/13 17:14:20;;;;;;;2.95;2.60;;;;;;;27.19;23.13;99560.63;10299200;28;20162;-62
2023/06/13 17:19:23;;;;;;;2.90;2.70;;;;;;;27.10;22.63;99574.72;10300188;28;20451;-60
2023/06/13 17:24:27;;;;;;;4.60;3.15;;;;;;;27.10;23.38;99565.72;10297825;28;20050;-62
2023/06/13 17:29:29;;;;;;;6.13;2.88;;;;;;;27.13;23.66;99570.66;10291313;28;20130;-61
2023/06/13 17:34:32;;;;;;;2.88;2.10;;;;;;;27.05;23.63;99569.16;10276621;28;20572;-61
2023/06/13 17:39:33;;;;;;;;;;;;;;;27.03;24.38;99570.50;10288435;28;20494;-61
2023/06/13 17:44:35;;;;;;;4.13;2.67;;;;;;;27.02;24.98;99566.09;10269836;28;20207;-61
2023/06/13 17:49:37;;;;;;;3.27;2.70;;;;;;;26.91;24.90;99578.78;10283200;28;20356;-61
2023/06/13 17:54:40;;;;;;;3.95;2.55;;;;;;;26.87;25.17;99575.69;10298599;28;20096;-61
2023/06/13 17:59:41;;;;;;;5.22;3.30;;;;;;;26.79;25.79;99571.47;10283280;28;20058;-62
2023/06/13 18:04:43;;;;;;;3.90;2.42;;;;;;;26.72;26.25;99570.84;10299319;28;20854;-61
2023/06/13 18:09:44;;;;;;;3.10;2.75;;;;;;;26.69;26.28;99571.28;10299846;28;20576;-61
2023/06/13 18:14:46;;;;;;;3.15;2.85;;;;;;;26.59;26.14;99582.84;10286328;28;20113;-61
2023/06/13 18:19:48;;;;;;;4.57;2.75;;;;;;;26.55;26.45;99576.22;10299722;28;20737;-61
2023/06/13 18:24:50;;;;;;;2.78;2.58;;;;;;;26.53;26.79;99582.97;10297642;28;20114;-62
2023/06/13 18:29:52;;;;;;;4.70;2.60;;;;;;;26.41;26.90;99585.78;10276869;28;20533;-61
2023/06/13 18:34:53;;;;;;;3.85;2.95;;;;;;;26.38;26.91;99598.00;10294152;28;20129;-61
2023/06/13 18:39:55;;;;;;;4.10;3.05;;;;;;;26.25;26.89;99588.22;10298076;28;20155;-61
2023/06/13 18:44:56;;;;;;;3.88;3.00;;;;;;;26.11;26.83;99604.03;10280952;28;20131;-64
2023/06/13 18:49:58;;;;;;;3.80;3.10;;;;;;;26.01;26.56;99592.91;10279767;28;20049;-62
2023/06/13 18:54:59;;;;;;;3.38;2.70;;;;;;;25.91;26.83;99598.97;10304328;28;20084;-61
2023/06/13 19:00:02;;;;;;;4.20;2.72;;;;;;;25.83;26.62;99612.13;10283619;28;20083;-61
2023/06/13 19:05:05;;;;;;;;;;;;;;;25.79;26.52;99613.69;10289106;28;20061;-61
2023/06/13 19:10:07;;;;;;;3.38;3.00;;;;;;;25.67;26.66;99622.72;10303070;28;19937;-62
2023/06/13 19:15:11;;;;;;;4.72;2.72;;;;;;;25.60;26.91;99624.72;10301017;28;20116;-61
2023/06/13 19:20:17;;;;;;;3.05;2.75;;;;;;;25.53;27.18;99624.00;10287493;28;20068;-62
2023/06/13 19:25:18;;;;;;;2.83;2.63;;;;;;;25.43;26.85;99621.06;10288616;28;20107;-61
2023/06/13 19:30:20;;;;;;;5.07;2.72;;;;;;;25.38;26.97;99636.19;10288179;28;20499;-62
2023/06/13 19:35:24;;;;;;;3.67;3.00;;;;;;;25.31;26.98;99638.22;10299089;28;20058;-61
2023/06/13 19:40:25;;;;;;;5.05;3.20;;;;;;;25.25;27.02;99655.44;10271915;28;20064;-61
2023/06/13 19:45:27;;;;;;;4.53;3.15;;;;;;;25.14;27.38;99659.00;10299404;28;20065;-61
2023/06/13 19:50:29;;;;;;;5.10;3.13;;;;;;;25.06;27.23;99662.91;10284427;28;20537;-62
2023/06/13 19:55:32;;;;;;;5.45;2.78;;;;;;;24.98;27.39;99672.25;10298957;28;20620;-61
2023/06/13 20:00:34;;;;;;;3.55;2.80;;;;;;;24.92;27.80;99667.72;10303884;28;20495;-61
2023/06/13 20:05:37;;;;;;;11.00;3.70;;;;;;;24.88;28.05;99688.28;10307286;28;20243;-61
2023/06/13 20:10:39;;;;;;;4.82;3.47;;;;;;;24.80;27.89;99696.78;10302803;28;20057;-61
2023/06/13 20:15:42;;;;;;;4.82;4.05;;;;;;;24.73;28.18;99696.06;10304997;28;20062;-62
2023/06/13 20:20:46;;;;;;;4.57;3.83;;;;;;;24.64;27.88;99687.38;10268940;28;20522;-62
2023/06/13 20:25:48;;;;;;;5.78;3.40;;;;;;;24.58;28.60;99699.16;10307753;28;20717;-61
2023/06/13 20:30:49;;;;;;;3.28;2.97;;;;;;;24.46;28.31;99691.75;10259741;28;20065;-61
2023/06/13 20:35:51;;;;;;;5.38;3.83;;;;;;;24.48;28.17;99705.13;10292407;28;20049;-62
2023/06/13 20:40:52;;;;;;;4.03;3.03;;;;;;;24.32;28.54;99710.13;10303884;28;20054;-61
2023/06/13 20:45:54;;;;;;;4.22;3.42;;;;;;;24.29;28.64;99702.41;10302494;28;20568;-61
2023/06/13 20:50:57;;;;;;;6.00;3.93;;;;;;;24.30;28.70;99720.38;10291800;28;20063;-61
2023/06/13 20:56:00;;;;;;;4.00;3.65;;;;;;;24.27;28.66;99717.28;10292085;28;20428;-61
2023/06/13 21:01:03;;;;;;;7.60;5.13;;;;;;;24.17;28.64;99720.56;10302415;28;20061;-62
2023/06/13 21:06:09;;;;;;;;;;;;;;;24.12;31.52;99718.50;10291299;28;20970;-55
2023/06/13 21:11:12;;;;;;;4.35;3.95;;;;;;;24.10;30.69;99712.47;10299991;28;20131;-55
2023/06/13 21:16:19;;;;;;;5.18;3.58;;;;;;;24.05;29.36;99720.47;10278814;28;20057;-55
2023/06/13 21:21:23;;;;;;;3.47;3.17;;;;;;;23.96;29.27;99725.38;10301616;28;20587;-55
2023/06/13 21:26:27;;;;;;;4.65;3.50;;;;;;;23.78;29.21;99720.69;10304997;28;20081;-56
2023/06/13 21:31:28;;;;;;;5.53;3.67;;;;;;;23.80;30.13;99723.19;10304970;28;20052;-55
2023/06/13 21:36:30;;;;;;;4.85;4.00;;;;;;;23.74;29.52;99726.81;10305120;28;20056;-55
2023/06/13 21:41:31;;;;;;;4.07;3.45;;;;;;;23.68;30.26;99741.28;10311677;28;20601;-55
2023/06/13 21:46:33;;;;;;;3.97;3.67;;;;;;;23.63;30.61;99742.78;10291258;28;20193;-55
2023/06/13 21:51:35;;;;;;;4.20;3.80;;;;;;;23.63;31.44;99733.78;10285390;28;20060;-55
2023/06/13 21:56:36;;;;;;;4.63;3.63;;;;;;;23.53;30.82;99742.44;10306949;28;20613;-55
2023/06/13 22:01:38;;;;;;;5.00;3.67;;;;;;;23.49;31.13;99741.19;10306969;28;20058;-57
2023/06/13 22:06:40;;;;;;;4.15;3.45;;;;;;;23.48;31.03;99742.28;10312942;28;20053;-55
2023/06/13 22:11:44;;;;;;;4.90;4.13;;;;;;;23.48;30.90;99745.81;10310938;28;20532;-56
2023/06/13 22:16:51;;;;;;;4.40;3.78;;;;;;;23.41;31.04;99745.03;10308523;28;20050;-55
2023/06/13 22:21:54;;;;;;;5.70;3.63;;;;;;;23.37;30.87;99748.41;10276839;28;20152;-55
2023/06/13 22:26:55;;;;;;;4.88;4.30;;;;;;;23.29;31.89;99757.66;10294851;28;20065;-55
2023/06/13 22:31:57;;;;;;;6.65;3.80;;;;;;;23.23;31.69;99766.66;10301039;28;20053;-55
2023/06/13 22:36:58;;;;;;;4.82;3.65;;;;;;;23.23;31.38;99758.53;10297051;28;20140;-55
2023/06/13 22:42:00;;;;;;;4.68;3.33;;;;;;;23.15;31.62;99764.19;10306744;28;20049;-55
2023/06/13 22:47:02;;;;;;;4.13;3.78;;;;;;;23.08;32.04;99778.63;10292878;28;20145;-55
2023/06/13 22:52:04;;;;;;;6.73;3.87;;;;;;;22.99;32.35;99784.53;10306467;28;20134;-56
2023/06/13 22:57:06;;;;;;;4.40;3.78;;;;;;;22.89;32.55;99785.81;10292710;28;20758;-55
2023/06/13 23:02:07;;;;;;;4.95;4.10;;;;;;;22.87;32.45;99778.94;10305358;28;20409;-55
2023/06/13 23:07:09;;;;;;;3.90;3.50;;;;;;;22.78;32.51;99784.59;10286520;28;20050;-54
2023/06/13 23:12:11;;;;;;;5.20;3.60;;;;;;;22.75;32.83;99779.59;10306916;28;20264;-55
2023/06/13 23:17:14;;;;;;;6.00;3.92;;;;;;;22.76;33.19;99781.28;10307325;28;20050;-55
2023/06/13 23:22:16;;;;;;;6.20;3.80;;;;;;;22.69;33.18;99787.78;10292561;28;20053;-55
2023/06/13 23:27:19;;;;;;;10.30;5.10;;;;;;;22.58;33.03;99784.69;10302297;28;20149;-55
2023/06/13 23:32:21;;;;;;;3.92;3.40;;;;;;;22.59;33.16;99780.09;10290900;28;20533;-55